createdAt,value
2023-08-01T00:01:16.530Z,100.00
2023-08-01T00:03:43.275Z,100.00
2023-08-01T00:06:09.851Z,100.00
2023-08-01T00:08:36.386Z,100.00
2023-08-01T00:11:02.935Z,100.00
2023-08-01T00:13:29.469Z,100.00
2023-08-01T00:16:06.762Z,100.00
2023-08-01T00:18:34.667Z,100.00
2023-08-01T00:21:01.247Z,100.00
2023-08-01T00:23:27.812Z,100.00
2023-08-01T00:25:54.739Z,100.00
2023-08-01T00:28:23.681Z,100.00
2023-08-01T00:30:50.295Z,100.00
2023-08-01T00:33:16.864Z,100.00
2023-08-01T00:35:43.531Z,100.00
2023-08-01T00:38:10.029Z,100.00
2023-08-01T00:40:36.610Z,100.00
2023-08-01T00:43:03.173Z,100.00
2023-08-01T00:45:31.156Z,100.00
2023-08-01T00:47:57.863Z,100.00
2023-08-01T00:50:24.639Z,100.00
2023-08-01T00:52:53.156Z,100.00
2023-08-01T00:55:20.406Z,100.00
2023-08-01T00:57:47.422Z,100.00
2023-08-01T01:00:14.671Z,100.00
2023-08-01T01:02:41.820Z,100.00
2023-08-01T01:05:08.693Z,100.00
2023-08-01T01:07:36.027Z,100.00
2023-08-01T01:10:03.935Z,100.00
2023-08-01T01:12:30.473Z,100.00
2023-08-01T01:14:56.991Z,100.00
2023-08-01T01:17:23.556Z,100.00
2023-08-01T01:19:50.893Z,100.00
2023-08-01T01:22:17.971Z,100.00
2023-08-01T01:24:46.324Z,100.00
2023-08-01T01:27:14.061Z,100.00
2023-08-01T01:29:42.064Z,100.00
2023-08-01T01:32:08.941Z,100.00
2023-08-01T01:34:35.509Z,100.00
2023-08-01T01:37:02.031Z,100.00
2023-08-01T01:39:28.552Z,100.00
2023-08-01T01:41:55.154Z,100.00
2023-08-01T01:44:21.798Z,100.00
2023-08-01T01:46:50.677Z,100.00
2023-08-01T01:49:17.388Z,100.00
2023-08-01T01:51:43.941Z,100.00
2023-08-01T01:54:10.514Z,100.00
2023-08-01T01:56:37.306Z,100.00
2023-08-01T01:59:03.997Z,100.00
2023-08-01T02:01:30.613Z,100.00
2023-08-01T02:03:57.167Z,100.00
2023-08-01T02:06:23.628Z,100.00
2023-08-01T02:08:50.173Z,100.00
2023-08-01T02:11:16.832Z,100.00
2023-08-01T02:13:43.466Z,100.00
2023-08-01T02:16:10.047Z,100.00
2023-08-01T02:18:36.635Z,100.00
2023-08-01T02:21:03.301Z,100.00
2023-08-01T02:23:30.157Z,100.00
2023-08-01T02:25:56.803Z,100.00
2023-08-01T02:28:23.514Z,100.00
2023-08-01T02:30:51.784Z,100.00
2023-08-01T02:33:18.432Z,100.00
2023-08-01T02:35:45.016Z,100.00
2023-08-01T02:38:12.626Z,100.00
2023-08-01T02:40:39.152Z,100.00
2023-08-01T02:43:05.702Z,100.00
2023-08-01T02:45:32.247Z,100.00
2023-08-01T02:47:58.862Z,100.00
2023-08-01T02:50:26.107Z,100.00
2023-08-01T02:52:52.700Z,100.00
2023-08-01T02:55:19.371Z,100.00
2023-08-01T02:57:45.895Z,100.00
2023-08-01T03:00:12.726Z,100.00
2023-08-01T03:02:40.637Z,100.00
2023-08-01T03:05:08.970Z,100.00
2023-08-01T03:07:35.554Z,100.00
2023-08-01T03:10:03.261Z,100.00
2023-08-01T03:12:29.878Z,100.00
2023-08-01T03:14:56.392Z,100.00
2023-08-01T03:17:22.953Z,100.00
2023-08-01T03:19:50.150Z,100.00
2023-08-01T03:22:17.761Z,100.00
2023-08-01T03:24:44.505Z,100.00
2023-08-01T03:27:11.092Z,100.00
2023-08-01T03:29:37.735Z,100.00
2023-08-01T03:32:04.726Z,100.00
2023-08-01T03:34:31.323Z,100.00
2023-08-01T03:36:58.975Z,100.00
2023-08-01T03:39:25.559Z,100.00
2023-08-01T03:41:52.122Z,100.00
2023-08-01T03:44:20.070Z,100.00
2023-08-01T03:46:48.818Z,100.00
2023-08-01T03:49:15.398Z,100.00
2023-08-01T03:51:41.976Z,100.00
2023-08-01T03:54:13.865Z,100.00
2023-08-01T03:56:44.179Z,100.00
2023-08-01T03:59:12.424Z,100.00
2023-08-01T04:01:39.002Z,100.00
2023-08-01T04:04:05.859Z,100.00
2023-08-01T04:06:32.462Z,100.00
2023-08-01T04:09:00.950Z,100.00
2023-08-01T04:11:28.182Z,100.00
2023-08-01T04:13:54.716Z,100.00
2023-08-01T04:16:21.284Z,100.00
2023-08-01T04:18:47.802Z,100.00
2023-08-01T04:21:15.689Z,100.00
2023-08-01T04:23:42.437Z,100.00
2023-08-01T04:26:09.221Z,100.00
2023-08-01T04:28:36.041Z,100.00
2023-08-01T04:31:02.957Z,100.00
2023-08-01T04:33:29.627Z,100.00
2023-08-01T04:35:56.207Z,100.00
2023-08-01T04:38:22.737Z,100.00
2023-08-01T04:40:49.245Z,100.00
2023-08-01T04:43:15.797Z,100.00
2023-08-01T04:45:42.360Z,100.00
2023-08-01T04:48:08.907Z,100.00
2023-08-01T04:50:35.435Z,100.00
2023-08-01T04:53:02.014Z,100.00
2023-08-01T04:55:28.869Z,100.00
2023-08-01T04:57:55.351Z,100.00
2023-08-01T05:00:21.896Z,100.00
2023-08-01T05:02:49.013Z,100.00
2023-08-01T05:05:17.191Z,100.00
2023-08-01T05:07:43.797Z,100.00
2023-08-01T05:10:11.086Z,100.00
2023-08-01T05:12:37.714Z,100.00
2023-08-01T05:15:04.723Z,100.00
2023-08-01T05:17:31.522Z,100.00
2023-08-01T05:19:58.117Z,100.00
2023-08-01T05:22:24.720Z,100.00
2023-08-01T05:24:51.177Z,100.00
2023-08-01T05:27:17.758Z,100.00
2023-08-01T05:29:44.358Z,100.00
2023-08-01T05:32:10.851Z,100.00
2023-08-01T05:34:37.394Z,100.00
2023-08-01T05:37:04.167Z,100.00
2023-08-01T05:39:30.642Z,100.00
2023-08-01T05:41:57.199Z,100.00
2023-08-01T05:44:23.885Z,100.00
2023-08-01T05:46:50.444Z,100.00
2023-08-01T05:49:17.079Z,100.00
2023-08-01T05:51:43.652Z,100.00
2023-08-01T05:54:10.201Z,100.00
2023-08-01T05:56:36.892Z,100.00
2023-08-01T05:59:04.773Z,100.00
2023-08-01T06:01:31.486Z,100.00
2023-08-01T06:04:00.521Z,100.00
2023-08-01T06:06:27.188Z,100.00
2023-08-01T06:08:54.247Z,100.00
2023-08-01T06:11:20.769Z,100.00
2023-08-01T06:13:47.273Z,100.00
2023-08-01T06:16:13.924Z,100.00
2023-08-01T06:18:40.431Z,100.00
2023-08-01T06:21:06.935Z,100.00
2023-08-01T06:23:33.550Z,100.00
2023-08-01T06:26:01.334Z,100.00
2023-08-01T06:28:27.877Z,100.00
2023-08-01T06:30:54.749Z,100.00
2023-08-01T06:33:21.280Z,100.00
2023-08-01T06:35:48.232Z,100.00
2023-08-01T06:38:14.818Z,100.00
2023-08-01T06:40:41.392Z,100.00
2023-08-01T06:43:08.098Z,100.00
2023-08-01T06:45:34.610Z,100.00
2023-08-01T06:48:01.246Z,100.00
2023-08-01T06:50:27.903Z,100.00
2023-08-01T06:52:55.701Z,98.98
2023-08-01T06:55:22.318Z,96.40
2023-08-01T06:57:48.884Z,92.70
2023-08-01T07:00:15.737Z,90.56
2023-08-01T07:02:42.508Z,88.48
2023-08-01T07:05:09.312Z,89.89
2023-08-01T07:07:35.930Z,85.09
2023-08-01T07:10:02.617Z,85.73
2023-08-01T07:12:29.163Z,86.28
2023-08-01T07:14:55.677Z,86.86
2023-08-01T07:17:22.237Z,87.51
2023-08-01T07:19:48.799Z,82.66
2023-08-01T07:22:15.365Z,84.38
2023-08-01T07:24:41.843Z,82.92
2023-08-01T07:27:08.401Z,81.57
2023-08-01T07:29:34.893Z,84.03
2023-08-01T07:32:01.507Z,85.90
2023-08-01T07:34:28.664Z,87.22
2023-08-01T07:36:55.236Z,89.49
2023-08-01T07:39:21.838Z,91.25
2023-08-01T07:41:49.753Z,91.73
2023-08-01T07:44:16.242Z,91.61
2023-08-01T07:46:42.894Z,92.04
2023-08-01T07:49:09.701Z,93.22
2023-08-01T07:51:37.299Z,91.20
2023-08-01T07:54:04.030Z,89.88
2023-08-01T07:56:30.593Z,91.07
2023-08-01T07:58:57.127Z,89.83
2023-08-01T08:01:24.153Z,90.75
2023-08-01T08:03:50.875Z,92.36
2023-08-01T08:06:17.537Z,94.47
2023-08-01T08:08:44.048Z,87.98
2023-08-01T08:11:10.703Z,85.40
2023-08-01T08:13:37.268Z,86.64
2023-08-01T08:16:05.598Z,83.59
2023-08-01T08:18:32.153Z,81.74
2023-08-01T08:20:58.720Z,83.68
2023-08-01T08:23:25.230Z,83.53
2023-08-01T08:25:51.865Z,84.17
2023-08-01T08:28:30.242Z,84.71
2023-08-01T08:30:56.930Z,83.07
2023-08-01T08:33:23.666Z,83.51
2023-08-01T08:35:50.794Z,78.98
2023-08-01T08:38:19.923Z,80.22
2023-08-01T08:41:12.134Z,79.77
2023-08-01T08:43:40.223Z,77.47
2023-08-01T08:46:07.409Z,77.24
2023-08-01T08:48:34.910Z,77.03
2023-08-01T08:51:02.710Z,73.49
2023-08-01T08:53:31.299Z,70.20
2023-08-01T08:55:58.831Z,72.67
2023-08-01T08:58:25.708Z,70.72
2023-08-01T09:00:52.524Z,71.48
2023-08-01T09:03:20.377Z,72.73
2023-08-01T09:05:51.308Z,75.27
2023-08-01T09:08:22.901Z,72.10
2023-08-01T09:10:49.605Z,69.11
2023-08-01T09:13:16.516Z,70.87
2023-08-01T09:15:46.634Z,69.53
2023-08-01T09:18:13.249Z,73.46
2023-08-01T09:20:44.720Z,72.72
2023-08-01T09:23:12.613Z,74.03
2023-08-01T09:25:39.765Z,74.39
2023-08-01T09:28:25.676Z,74.53
2023-08-01T09:30:56.476Z,72.53
2023-08-01T09:33:23.747Z,73.80
2023-08-01T09:35:51.762Z,72.93
2023-08-01T09:38:18.502Z,75.78
2023-08-01T09:40:46.340Z,71.62
2023-08-01T09:43:14.435Z,74.01
2023-08-01T09:45:55.207Z,75.83
2023-08-01T09:48:24.984Z,77.51
2023-08-01T09:50:51.463Z,79.45
2023-08-01T09:53:17.957Z,81.79
2023-08-01T09:55:47.625Z,82.07
2023-08-01T09:58:17.920Z,79.55
2023-08-01T10:00:45.108Z,77.45
2023-08-01T10:03:11.844Z,76.62
2023-08-01T10:05:40.995Z,76.29
2023-08-01T10:08:07.893Z,77.12
2023-08-01T10:10:34.883Z,73.21
2023-08-01T10:13:02.365Z,72.87
2023-08-01T10:15:30.550Z,73.90
2023-08-01T10:17:58.582Z,73.39
2023-08-01T10:20:26.121Z,70.45
2023-08-01T10:22:53.849Z,69.44
2023-08-01T10:25:22.784Z,69.53
2023-08-01T10:28:03.331Z,70.30
2023-08-01T10:30:30.636Z,73.58
2023-08-01T10:32:58.831Z,72.21
2023-08-01T10:35:55.798Z,70.04
2023-08-01T10:38:22.333Z,70.80
2023-08-01T10:40:48.895Z,66.85
2023-08-01T10:43:22.692Z,66.54
2023-08-01T10:45:49.907Z,65.26
2023-08-01T10:48:16.499Z,66.95
2023-08-01T10:50:43.035Z,69.06
2023-08-01T10:53:10.910Z,72.86
2023-08-01T10:55:46.150Z,68.70
2023-08-01T10:58:13.276Z,61.98
2023-08-01T11:00:40.102Z,60.23
2023-08-01T11:03:07.745Z,60.38
2023-08-01T11:05:34.533Z,61.34
2023-08-01T11:08:03.897Z,63.42
2023-08-01T11:10:32.290Z,65.53
2023-08-01T11:13:00.593Z,61.87
2023-08-01T11:15:27.446Z,58.49
2023-08-01T11:17:56.700Z,60.33
2023-08-01T11:20:25.629Z,59.01
2023-08-01T11:22:52.096Z,61.67
2023-08-01T11:25:18.797Z,61.36
2023-08-01T11:27:45.486Z,63.02
2023-08-01T11:30:12.457Z,63.45
2023-08-01T11:32:39.922Z,59.91
2023-08-01T11:35:07.109Z,62.62
2023-08-01T11:37:34.115Z,63.00
2023-08-01T11:40:01.515Z,59.79
2023-08-01T11:42:33.573Z,59.88
2023-08-01T11:45:13.098Z,59.04
2023-08-01T11:47:46.515Z,57.75
2023-08-01T11:50:13.301Z,58.25
2023-08-01T11:52:40.118Z,59.66
2023-08-01T11:55:06.949Z,61.03
2023-08-01T11:57:33.574Z,55.04
2023-08-01T12:00:00.172Z,57.10
2023-08-01T12:02:28.604Z,53.62
2023-08-01T12:04:55.752Z,58.01
2023-08-01T12:07:25.608Z,61.22
2023-08-01T12:09:59.060Z,59.61
2023-08-01T12:12:28.232Z,59.80
2023-08-01T12:14:55.549Z,55.64
2023-08-01T12:17:24.307Z,57.30
2023-08-01T12:19:50.981Z,58.27
2023-08-01T12:22:17.634Z,56.74
2023-08-01T12:24:44.216Z,56.60
2023-08-01T12:27:11.396Z,59.36
2023-08-01T12:29:38.037Z,58.72
2023-08-01T12:32:05.157Z,59.59
2023-08-01T12:34:32.096Z,63.18
2023-08-01T12:36:58.667Z,63.25
2023-08-01T12:39:27.894Z,59.30
2023-08-01T12:41:55.144Z,60.63
2023-08-01T12:44:22.266Z,62.17
2023-08-01T12:46:49.612Z,61.24
2023-08-01T12:49:16.302Z,60.11
2023-08-01T12:51:42.928Z,59.85
2023-08-01T12:54:09.597Z,59.98
2023-08-01T12:56:36.454Z,59.65
2023-08-01T12:59:03.089Z,55.51
2023-08-01T13:01:29.696Z,55.44
2023-08-01T13:03:56.324Z,54.66
2023-08-01T13:06:23.903Z,56.72
2023-08-01T13:08:50.513Z,58.87
2023-08-01T13:11:17.101Z,63.78
2023-08-01T13:13:44.017Z,66.45
2023-08-01T13:16:10.678Z,70.47
2023-08-01T13:18:38.186Z,71.09
2023-08-01T13:21:05.033Z,71.31
2023-08-01T13:23:31.642Z,71.89
2023-08-01T13:25:59.786Z,73.10
2023-08-01T13:28:26.417Z,73.37
2023-08-01T13:30:53.031Z,73.30
2023-08-01T13:33:19.552Z,73.43
2023-08-01T13:35:46.103Z,72.32
2023-08-01T13:38:14.041Z,73.36
2023-08-01T13:40:40.786Z,72.13
2023-08-01T13:43:07.321Z,70.09
2023-08-01T13:45:34.304Z,70.73
2023-08-01T13:48:01.875Z,68.05
2023-08-01T13:50:30.185Z,67.76
2023-08-01T13:52:56.862Z,67.41
2023-08-01T13:55:23.395Z,68.26
2023-08-01T13:57:49.946Z,69.03
2023-08-01T14:00:16.718Z,66.34
2023-08-01T14:02:43.504Z,64.00
2023-08-01T14:05:10.566Z,62.79
2023-08-01T14:07:44.082Z,63.19
2023-08-01T14:10:12.061Z,63.70
2023-08-01T14:12:38.594Z,64.93
2023-08-01T14:15:06.056Z,67.13
2023-08-01T14:17:32.724Z,66.58
2023-08-01T14:20:00.695Z,63.77
2023-08-01T14:22:27.476Z,65.86
2023-08-01T14:24:54.019Z,63.45
2023-08-01T14:27:20.893Z,64.37
2023-08-01T14:29:47.817Z,65.81
2023-08-01T14:32:15.200Z,65.19
2023-08-01T14:34:41.811Z,68.10
2023-08-01T14:37:08.378Z,68.65
2023-08-01T14:39:35.246Z,68.56
2023-08-01T14:42:05.296Z,68.98
2023-08-01T14:44:32.437Z,67.80
2023-08-01T14:47:00.213Z,68.44
2023-08-01T14:49:30.086Z,65.50
2023-08-01T14:51:56.536Z,66.96
2023-08-01T14:54:33.943Z,64.89
2023-08-01T14:57:07.079Z,65.83
2023-08-01T14:59:33.843Z,68.20
2023-08-01T15:02:01.601Z,66.17
2023-08-01T15:04:28.456Z,65.75
2023-08-01T15:06:55.415Z,66.74
2023-08-01T15:09:23.375Z,67.72
2023-08-01T15:11:49.966Z,69.11
2023-08-01T15:14:16.559Z,69.87
2023-08-01T15:16:43.766Z,69.06
2023-08-01T15:19:10.706Z,69.43
2023-08-01T15:21:37.331Z,71.87
2023-08-01T15:24:04.074Z,74.25
2023-08-01T15:26:30.590Z,74.92
2023-08-01T15:28:57.261Z,75.10
2023-08-01T15:31:23.804Z,77.40
2023-08-01T15:33:50.424Z,77.57
2023-08-01T15:36:16.994Z,78.84
2023-08-01T15:38:43.661Z,78.81
2023-08-01T15:41:10.498Z,80.89
2023-08-01T15:43:41.511Z,81.91
2023-08-01T15:46:09.949Z,84.03
2023-08-01T15:48:38.006Z,86.34
2023-08-01T15:51:05.940Z,85.65
2023-08-01T15:53:33.172Z,85.28
2023-08-01T15:56:03.463Z,86.32
2023-08-01T15:58:30.319Z,86.27
2023-08-01T16:00:58.460Z,85.34
2023-08-01T16:03:25.485Z,83.80
2023-08-01T16:05:53.615Z,86.04
2023-08-01T16:08:20.460Z,84.70
2023-08-01T16:10:49.749Z,84.85
2023-08-01T16:13:16.353Z,84.40
2023-08-01T16:15:43.860Z,83.60
2023-08-01T16:18:10.714Z,82.39
2023-08-01T16:20:37.362Z,83.04
2023-08-01T16:23:04.172Z,83.83
2023-08-01T16:25:30.833Z,83.53
2023-08-01T16:27:57.428Z,83.16
2023-08-01T16:30:24.188Z,83.60
2023-08-01T16:32:51.813Z,83.64
2023-08-01T16:35:19.244Z,83.81
2023-08-01T16:37:45.955Z,83.75
2023-08-01T16:40:12.865Z,82.64
2023-08-01T16:42:39.499Z,83.29
2023-08-01T16:45:11.234Z,83.22
2023-08-01T16:47:42.481Z,84.74
2023-08-01T16:50:20.387Z,84.71
2023-08-01T16:52:47.555Z,85.71
2023-08-01T16:55:15.028Z,86.17
2023-08-01T16:57:41.565Z,84.01
2023-08-01T17:00:10.079Z,83.58
2023-08-01T17:02:37.569Z,83.69
2023-08-01T17:05:05.197Z,84.21
2023-08-01T17:07:31.928Z,82.71
2023-08-01T17:10:03.729Z,85.25
2023-08-01T17:12:30.420Z,84.61
2023-08-01T17:14:57.137Z,83.79
2023-08-01T17:17:26.476Z,85.20
2023-08-01T17:19:53.291Z,83.13
2023-08-01T17:22:19.892Z,82.80
2023-08-01T17:24:46.440Z,82.59
2023-08-01T17:27:12.967Z,83.21
2023-08-01T17:29:39.622Z,83.95
2023-08-01T17:32:06.415Z,84.45
2023-08-01T17:34:33.338Z,82.66
2023-08-01T17:37:00.706Z,83.17
2023-08-01T17:39:29.167Z,84.61
2023-08-01T17:41:57.859Z,82.79
2023-08-01T17:44:25.414Z,84.69
2023-08-01T17:46:53.044Z,84.39
2023-08-01T17:49:20.061Z,82.33
2023-08-01T17:51:46.776Z,83.98
2023-08-01T17:54:13.462Z,83.50
2023-08-01T17:56:40.537Z,84.79
2023-08-01T17:59:07.741Z,82.87
2023-08-01T18:01:35.522Z,83.29
2023-08-01T18:04:02.763Z,83.16
2023-08-01T18:06:29.415Z,82.24
2023-08-01T18:08:55.961Z,82.31
2023-08-01T18:11:24.203Z,82.44
2023-08-01T18:13:50.842Z,82.28
2023-08-01T18:16:25.413Z,83.61
2023-08-01T18:18:53.558Z,82.73
2023-08-01T18:21:20.868Z,84.07
2023-08-01T18:23:47.794Z,84.12
2023-08-01T18:26:22.826Z,84.08
2023-08-01T18:28:51.194Z,82.71
2023-08-01T18:31:17.965Z,84.51
2023-08-01T18:33:44.638Z,84.18
2023-08-01T18:36:13.638Z,83.43
2023-08-01T18:38:42.012Z,83.80
2023-08-01T18:41:08.948Z,83.67
2023-08-01T18:43:37.005Z,84.09
2023-08-01T18:46:04.995Z,84.34
2023-08-01T18:48:32.237Z,83.11
2023-08-01T18:51:01.756Z,83.50
2023-08-01T18:53:29.092Z,84.76
2023-08-01T18:56:05.654Z,85.02
2023-08-01T18:58:32.326Z,85.05
2023-08-01T19:00:58.968Z,84.66
2023-08-01T19:03:26.020Z,83.94
2023-08-01T19:05:52.533Z,83.61
2023-08-01T19:08:19.252Z,81.42
2023-08-01T19:10:46.521Z,83.96
2023-08-01T19:13:13.065Z,84.00
2023-08-01T19:15:39.701Z,83.86
2023-08-01T19:18:06.502Z,84.83
2023-08-01T19:20:33.156Z,85.52
2023-08-01T19:22:59.780Z,81.59
2023-08-01T19:25:26.366Z,81.22
2023-08-01T19:27:52.969Z,82.60
2023-08-01T19:30:20.075Z,83.97
2023-08-01T19:32:46.714Z,83.01
2023-08-01T19:35:13.503Z,83.46
2023-08-01T19:37:40.100Z,82.44
2023-08-01T19:40:08.507Z,82.24
2023-08-01T19:42:35.366Z,83.49
2023-08-01T19:45:02.000Z,81.79
2023-08-01T19:47:28.765Z,83.46
2023-08-01T19:49:55.294Z,81.76
2023-08-01T19:52:21.800Z,82.50
2023-08-01T19:54:49.767Z,81.88
2023-08-01T19:57:16.249Z,81.13
2023-08-01T19:59:42.920Z,80.92
2023-08-01T20:02:09.427Z,81.01
2023-08-01T20:04:36.933Z,80.51
2023-08-01T20:07:04.259Z,80.04
2023-08-01T20:09:30.809Z,82.61
2023-08-01T20:11:57.318Z,81.92
2023-08-01T20:14:23.982Z,81.35
2023-08-01T20:16:50.657Z,82.90
2023-08-01T20:19:17.612Z,84.66
2023-08-01T20:21:44.230Z,83.79
2023-08-01T20:24:10.738Z,84.46
2023-08-01T20:26:37.251Z,82.11
2023-08-01T20:29:04.161Z,84.13
2023-08-01T20:31:30.722Z,82.70
2023-08-01T20:33:57.245Z,84.36
2023-08-01T20:36:23.870Z,83.29
2023-08-01T20:38:51.771Z,83.50
2023-08-01T20:41:18.387Z,83.72
2023-08-01T20:43:44.912Z,83.67
2023-08-01T20:46:12.947Z,83.64
2023-08-01T20:48:39.548Z,84.69
2023-08-01T20:51:06.157Z,85.37
2023-08-01T20:53:32.724Z,83.52
2023-08-01T20:55:59.349Z,83.88
2023-08-01T20:58:25.893Z,85.08
2023-08-01T21:00:59.339Z,84.97
2023-08-01T21:03:26.533Z,83.31
2023-08-01T21:05:55.252Z,84.45
2023-08-01T21:08:23.812Z,84.96
2023-08-01T21:10:50.587Z,85.04
2023-08-01T21:13:17.173Z,86.12
2023-08-01T21:15:43.824Z,86.52
2023-08-01T21:18:10.506Z,85.74
2023-08-01T21:20:38.229Z,85.34
2023-08-01T21:23:05.554Z,86.23
2023-08-01T21:25:32.793Z,86.06
2023-08-01T21:27:59.667Z,86.68
2023-08-01T21:30:26.382Z,86.23
2023-08-01T21:32:52.918Z,87.12
2023-08-01T21:35:20.645Z,86.88
2023-08-01T21:37:51.059Z,86.47
2023-08-01T21:40:18.157Z,86.32
2023-08-01T21:42:44.682Z,87.33
2023-08-01T21:45:11.928Z,86.91
2023-08-01T21:47:39.897Z,87.66
2023-08-01T21:50:07.369Z,86.47
2023-08-01T21:52:33.878Z,87.38
2023-08-01T21:55:00.450Z,87.62
2023-08-01T21:57:26.971Z,88.24
2023-08-01T21:59:53.611Z,87.63
2023-08-01T22:02:20.848Z,87.20
2023-08-01T22:04:47.684Z,87.71
2023-08-01T22:07:14.264Z,87.68
2023-08-01T22:09:40.812Z,88.30
2023-08-01T22:12:07.598Z,88.24
2023-08-01T22:14:34.190Z,88.55
2023-08-01T22:17:00.746Z,88.71
2023-08-01T22:19:27.389Z,88.63
2023-08-01T22:21:53.909Z,89.28
2023-08-01T22:24:20.445Z,88.87
2023-08-01T22:26:47.003Z,89.38
2023-08-01T22:29:14.049Z,88.64
2023-08-01T22:31:40.634Z,88.74
2023-08-01T22:34:09.483Z,88.90
2023-08-01T22:36:35.962Z,88.86
2023-08-01T22:39:02.478Z,89.23
2023-08-01T22:41:29.429Z,89.24
2023-08-01T22:43:59.531Z,89.51
2023-08-01T22:46:26.478Z,89.37
2023-08-01T22:48:53.537Z,89.32
2023-08-01T22:51:21.021Z,89.73
2023-08-01T22:53:49.339Z,90.32
2023-08-01T22:56:17.391Z,89.98
2023-08-01T22:58:44.504Z,90.16
2023-08-01T23:01:13.375Z,90.13
2023-08-01T23:03:43.498Z,90.16
2023-08-01T23:06:10.466Z,90.28
2023-08-01T23:08:37.141Z,89.99
2023-08-01T23:11:03.833Z,90.41
2023-08-01T23:13:30.494Z,89.92
2023-08-01T23:15:57.209Z,90.47
2023-08-01T23:18:24.053Z,90.13
2023-08-01T23:20:57.670Z,90.31
2023-08-01T23:23:24.234Z,90.07
2023-08-01T23:25:50.739Z,91.00
2023-08-01T23:28:17.516Z,91.10
2023-08-01T23:30:45.113Z,90.76
2023-08-01T23:33:11.869Z,91.54
2023-08-01T23:35:38.462Z,91.11
2023-08-01T23:38:04.982Z,91.39
2023-08-01T23:40:31.525Z,91.66
2023-08-01T23:42:58.040Z,91.25
2023-08-01T23:45:24.589Z,91.62
2023-08-01T23:47:51.180Z,91.37
2023-08-01T23:50:17.835Z,91.71
2023-08-01T23:52:44.576Z,91.08
2023-08-01T23:55:12.685Z,91.50
2023-08-01T23:57:39.240Z,91.19
